Time;durP1;ratioP1;P1;durP2;ratioP2;P2;SDS_P1;SDS_P2;PMS_P1;PMS_P2;Temp;Humidity;BMP_temperature;BMP_pressure;BME280_temperature;BME280_humidity;BME280_pressure;Samples;Min_cycle;Max_cycle;Signal;HPM_P1;HPM_P2
2022/03/30 00:01:09;;;;;;;;;;;9.50;92.50;;;9.18;73.51;95996.88;5073933;28;19927;-54
2022/03/30 00:03:34;;;;;;;;;;;9.60;92.60;;;9.23;73.55;95996.66;5068924;28;20514;-50
2022/03/30 00:06:00;;;;;;;;;;;9.60;92.60;;;9.27;73.16;96001.66;5072543;28;20391;-49
2022/03/30 00:08:25;;;;;;;;;;;9.70;92.50;;;9.30;72.90;95996.22;5074285;28;21025;-50
2022/03/30 00:10:51;;;;;;;;;;;9.70;92.50;;;9.35;72.27;96002.09;5076013;28;19963;-52
2022/03/30 00:13:17;;;;;;;;;;;9.80;92.30;;;9.40;72.03;96006.25;5074283;28;20323;-48
2022/03/30 00:15:44;;;;;;;;;;;9.80;92.30;;;9.42;71.67;96000.00;5070837;28;20246;-49
2022/03/30 00:18:09;;;;;;;;;;;9.80;92.20;;;9.46;71.37;95998.88;5075128;28;19924;-40
2022/03/30 00:20:35;;;;;;;;;;;9.90;92.10;;;9.50;71.29;96004.81;5072401;28;20519;-49
2022/03/30 00:23:01;;;;;;;;;;;9.90;92.10;;;9.54;71.05;95998.44;5074936;28;20377;-50
2022/03/30 00:25:27;;;;;;;;;;;10.00;92.00;;;9.58;71.22;95993.88;5066837;28;20030;-50
2022/03/30 00:27:52;;;;;;;;;;;10.00;92.10;;;9.62;70.95;95996.25;5073429;28;19920;-51
2022/03/30 00:30:19;;;;;;;;;;;10.00;92.00;;;9.66;70.64;95997.78;5075789;28;19916;-50
2022/03/30 00:32:45;;;;;;;;;;;10.10;92.00;;;9.70;70.49;95983.50;5076135;28;19927;-50
2022/03/30 00:35:11;;;;;;;;;;;10.10;91.90;;;9.74;70.18;95979.78;5071110;28;19947;-52
2022/03/30 00:37:37;;;;;;;;;;;10.20;91.90;;;9.79;70.44;95986.56;5049131;28;20019;-49
2022/03/30 00:40:06;;;;;;;;;;;10.20;91.90;;;9.80;70.91;95989.09;5070136;28;19920;-50
2022/03/30 00:42:31;;;;;;;;;;;10.20;92.10;;;9.82;71.17;95986.41;5074177;28;19920;-50
2022/03/30 00:44:57;;;;;;;;;;;10.20;92.20;;;9.82;71.27;95987.22;5072080;28;19946;-45
2022/03/30 00:47:26;;;;;;;;;;;10.30;92.20;;;9.81;70.44;95985.53;5071485;28;20889;-43
2022/03/30 00:49:53;;;;;;;;;;;10.30;92.00;;;9.83;69.87;95981.00;5074297;28;20344;-42
2022/03/30 00:52:20;;;;;;;;;;;10.30;91.80;;;9.82;69.57;95984.59;5067151;28;20006;-44
2022/03/30 00:54:50;;;;;;;;;;;10.20;91.70;;;9.82;69.13;95986.41;5072120;28;20365;-39
2022/03/30 00:57:19;;;;;;;;;;;10.30;91.60;;;9.82;69.14;95983.75;5072855;28;19927;-48
2022/03/30 00:59:45;;;;;;;;;;;10.30;91.60;;;9.81;69.40;95995.22;5071739;28;20271;-52
2022/03/30 01:02:10;;;;;;;;;;;10.20;91.60;;;9.78;70.23;96001.50;5070935;28;19916;-51
2022/03/30 01:04:37;;;;;;;;;;;10.20;91.80;;;9.73;72.64;95995.66;5066715;28;20318;-49
2022/03/30 01:07:03;;;;;;;;;;;10.20;92.60;;;9.63;73.71;95992.66;5068872;28;20018;-49
2022/03/30 01:09:29;;;;;;;;;;;10.10;92.90;;;9.59;73.57;96001.69;5067466;28;19966;-53
2022/03/30 01:11:55;;;;;;;;;;;10.00;92.90;;;9.53;75.25;95986.25;5069661;28;20002;-44
2022/03/30 01:14:22;;;;;;;;;;;10.00;93.60;;;9.52;74.84;95981.91;5067586;28;19931;-40
2022/03/30 01:16:48;;;;;;;;;;;10.00;93.50;;;9.53;75.76;95975.72;5066512;28;19978;-44
2022/03/30 01:19:14;;;;;;;;;;;9.90;93.70;;;9.51;76.28;95972.28;5067946;28;20078;-40
2022/03/30 01:21:41;;;;;;;;;;;10.00;94.00;;;9.47;77.07;95958.47;5066094;28;20461;-45
2022/03/30 01:24:12;;;;;;;;;;;10.00;94.30;;;9.52;77.03;95969.56;5073273;28;20072;-51
2022/03/30 01:26:40;;;;;;;;;;;10.00;94.30;;;9.54;76.20;95962.44;5070724;28;20289;-50
2022/03/30 01:32:25;;;;;;;;;;;10.00;94.10;;;9.57;75.75;95957.97;5074919;28;19923;-50
2022/03/30 01:34:38;;;;;;;;;;;10.10;94.00;;;9.67;75.94;95946.84;5054705;28;19926;-50
2022/03/30 01:37:05;;;;;;;;;;;10.10;94.10;;;9.68;76.36;95945.88;5068695;28;19920;-49
2022/03/30 01:39:31;;;;;;;;;;;10.10;94.30;;;9.70;76.69;95949.28;5073368;28;20012;-49
2022/03/30 01:41:56;;;;;;;;;;;10.10;94.40;;;9.71;76.67;95943.09;5071446;28;19927;-49
2022/03/30 01:44:22;;;;;;;;;;;10.10;94.50;;;9.73;76.86;95948.28;5071976;28;19987;-50
2022/03/30 01:46:48;;;;;;;;;;;10.10;94.60;;;9.71;76.12;95943.09;5072575;28;19920;-48
2022/03/30 01:49:13;;;;;;;;;;;10.20;94.60;;;9.72;74.74;95944.75;5069852;28;20403;-48
2022/03/30 01:51:39;;;;;;;;;;;10.10;94.00;;;9.73;75.00;95946.47;5069446;28;21608;-50
2022/03/30 01:54:04;;;;;;;;;;;10.20;94.10;;;9.72;74.36;95944.75;5070429;28;20224;-48
2022/03/30 01:56:30;;;;;;;;;;;10.10;93.80;;;9.72;75.38;95938.66;5067091;28;19928;-50
2022/03/30 01:58:56;;;;;;;;;;;10.10;94.10;;;9.69;76.35;95937.06;5072419;28;19916;-50
2022/03/30 02:01:21;;;;;;;;;;;10.10;94.50;;;9.65;76.89;95932.88;5067879;28;19931;-50
2022/03/30 02:03:47;;;;;;;;;;;10.10;94.70;;;9.62;76.97;95921.69;5072532;28;19947;-49
2022/03/30 02:06:14;;;;;;;;;;;10.00;94.80;;;9.58;77.32;95912.28;5069687;28;19928;-50
2022/03/30 02:08:39;;;;;;;;;;;10.00;95.00;;;9.60;77.64;95913.03;5068855;28;20389;-53
2022/03/30 02:11:05;;;;;;;;;;;10.00;95.10;;;9.57;77.45;95913.22;5069016;28;19922;-48
2022/03/30 02:13:31;;;;;;;;;;;10.00;95.10;;;9.57;76.54;95903.53;5069301;28;20063;-49
2022/03/30 02:15:56;;;;;;;;;;;10.00;94.90;;;9.58;75.87;95896.47;5072654;28;19924;-49
2022/03/30 02:18:23;;;;;;;;;;;10.00;94.60;;;9.60;75.56;95897.25;5069166;28;20034;-50
2022/03/30 02:20:48;;;;;;;;;;;10.00;94.60;;;9.62;74.34;95885.72;5070755;28;19970;-41
2022/03/30 02:23:14;;;;;;;;;;;10.00;94.20;;;9.67;74.01;95888.94;5071313;28;19916;-42
2022/03/30 02:25:40;;;;;;;;;;;10.10;94.20;;;9.70;73.74;95880.00;5066742;28;19955;-40
2022/03/30 02:28:05;;;;;;;;;;;10.10;94.00;;;9.73;72.94;95883.28;5074200;28;19924;-39
2022/03/30 02:30:31;;;;;;;;;;;10.10;93.80;;;9.75;73.13;95876.16;5076769;28;20232;-49
2022/03/30 02:32:57;;;;;;;;;;;10.10;93.80;;;9.75;73.33;95870.06;5077576;28;19931;-50
2022/03/30 02:35:23;;;;;;;;;;;10.20;93.90;;;9.73;73.35;95867.50;5077117;28;20011;-50
2022/03/30 02:37:49;;;;;;;;;;;10.20;94.00;;;9.78;73.30;95871.66;5071243;28;20312;-49
2022/03/30 02:40:15;;;;;;;;;;;10.20;94.00;;;9.78;74.48;95869.00;5073306;28;20349;-49
2022/03/30 02:42:40;;;;;;;;;;;10.20;94.40;;;9.74;74.01;95869.22;5072438;28;20306;-51
2022/03/30 02:45:07;;;;;;;;;;;10.20;94.20;;;9.75;72.97;95859.53;5067071;28;19924;-51
2022/03/30 02:50:16;;;;;;;;;;;10.10;93.70;;;9.75;72.65;95860.34;5079611;22;20541;-48
2022/03/30 02:52:42;;;;;;;;;;;10.10;93.80;;;9.74;73.35;95857.81;5067111;28;20018;-49
2022/03/30 02:55:08;;;;;;;;;;;10.20;94.00;;;9.69;73.32;95850.19;5065239;28;19994;-46
2022/03/30 02:57:34;;;;;;;;;;;10.10;94.40;;;9.68;73.81;95856.38;5066179;28;19928;-49
2022/03/30 02:59:59;;;;;;;;;;;10.10;94.10;;;9.69;73.95;95849.34;5062031;28;19920;-47
2022/03/30 03:02:25;;;;;;;;;;;10.10;94.30;;;9.69;74.51;95855.47;5053849;28;20042;-50
2022/03/30 03:04:51;;;;;;;;;;;10.10;94.50;;;9.66;74.40;95844.28;5050320;28;20321;-47
2022/03/30 03:07:17;;;;;;;;;;;10.10;94.40;;;9.66;74.77;95842.47;5051525;28;19917;-47
2022/03/30 03:09:43;;;;;;;;;;;10.10;94.60;;;9.67;74.73;95846.81;5050986;28;20185;-50
2022/03/30 03:12:08;;;;;;;;;;;10.10;94.60;;;9.65;74.86;95845.19;5051089;28;20026;-47
2022/03/30 03:14:34;;;;;;;;;;;10.00;94.60;;;9.64;75.04;95844.34;5050087;28;19929;-47
2022/03/30 03:17:00;;;;;;;;;;;10.00;94.80;;;9.67;75.07;95848.56;5052493;28;20265;-49
2022/03/30 03:19:25;;;;;;;;;;;10.10;94.80;;;9.68;74.72;95843.22;5051978;28;19951;-49
2022/03/30 03:21:51;;;;;;;;;;;10.10;94.70;;;9.67;75.19;95845.94;5050323;28;19966;-45
2022/03/30 03:24:17;;;;;;;;;;;10.10;94.80;;;9.65;75.56;95834.66;5052923;28;19923;-47
2022/03/30 03:26:42;;;;;;;;;;;10.10;95.00;;;9.65;75.48;95838.13;5050203;28;20172;-48
2022/03/30 03:29:08;;;;;;;;;;;10.10;95.00;;;9.67;74.55;95833.66;5052022;28;19916;-47
2022/03/30 03:31:34;;;;;;;;;;;10.10;94.70;;;9.63;74.63;95829.47;5049985;28;20109;-47
2022/03/30 03:33:59;;;;;;;;;;;10.10;94.70;;;9.43;75.03;95814.00;5052290;28;19958;-47
2022/03/30 03:36:25;;;;;;;;;;;10.00;94.80;;;9.51;75.47;95824.94;5049676;28;19928;-48
2022/03/30 03:38:51;;;;;;;;;;;10.00;95.00;;;9.50;75.94;95829.34;5052254;28;20225;-48
2022/03/30 03:41:16;;;;;;;;;;;10.00;95.10;;;9.47;75.28;95832.16;5049000;28;19926;-46
2022/03/30 03:43:42;;;;;;;;;;;9.90;95.00;;;9.48;75.12;95830.38;5050491;28;19917;-48
2022/03/30 03:46:08;;;;;;;;;;;9.90;94.90;;;9.48;75.29;95830.38;5053320;28;20519;-47
2022/03/30 03:48:34;;;;;;;;;;;9.90;95.00;;;9.48;76.32;95823.34;5052153;28;19928;-47
2022/03/30 03:50:59;;;;;;;;;;;9.90;95.30;;;9.48;77.01;95825.97;5051602;28;20289;-50
2022/03/30 03:53:25;;;;;;;;;;;9.90;95.60;;;9.47;77.66;95829.53;5051657;28;19960;-45
2022/03/30 03:55:50;;;;;;;;;;;9.90;95.90;;;9.47;77.42;95824.25;5050279;28;20375;-46
2022/03/30 03:58:16;;;;;;;;;;;9.90;95.90;;;9.49;77.08;95824.16;5052312;28;20458;-48
2022/03/30 04:00:42;;;;;;;;;;;9.90;95.80;;;9.50;76.16;95828.50;5051508;28;19920;-47
2022/03/30 04:03:08;;;;;;;;;;;9.90;95.60;;;9.51;75.74;95819.66;5051751;28;19924;-47
2022/03/30 04:05:33;;;;;;;;;;;9.90;95.40;;;9.52;75.65;95821.38;5047015;28;19920;-46
2022/03/30 04:07:59;;;;;;;;;;;10.00;95.40;;;9.52;74.08;95816.13;5052956;28;20490;-48
2022/03/30 04:10:25;;;;;;;;;;;9.90;94.80;;;9.54;73.96;95825.59;5047603;28;19920;-50
2022/03/30 04:12:50;;;;;;;;;;;10.00;94.80;;;9.57;73.29;95821.97;5044678;28;20055;-48
2022/03/30 04:15:16;;;;;;;;;;;10.00;94.60;;;9.59;73.38;95819.25;5048134;28;20006;-49
2022/03/30 04:17:46;;;;;;;;;;;10.00;94.60;;;9.59;73.14;95824.50;5050682;28;19962;-48
2022/03/30 04:20:13;;;;;;;;;;;10.10;94.50;;;9.63;72.97;95823.38;5050742;28;19928;-49
2022/03/30 04:22:39;;;;;;;;;;;10.10;94.50;;;9.59;73.25;95806.91;5047315;28;19951;-46
2022/03/30 04:25:05;;;;;;;;;;;10.10;94.60;;;9.67;73.71;95817.00;5048653;28;19969;-51
2022/03/30 04:27:31;;;;;;;;;;;10.10;94.80;;;9.67;75.03;95812.59;5054890;28;19917;-49
2022/03/30 04:29:57;;;;;;;;;;;10.10;95.20;;;9.67;75.27;95815.22;5050628;28;19924;-50
2022/03/30 04:32:22;;;;;;;;;;;10.10;95.30;;;9.65;75.37;95817.06;5051339;28;19921;-48
2022/03/30 04:34:48;;;;;;;;;;;10.10;95.30;;;9.63;76.76;95811.06;5051645;28;19924;-47
2022/03/30 04:37:16;;;;;;;;;;;10.10;95.70;;;9.62;77.60;95811.16;5049467;28;20301;-46
2022/03/30 04:39:41;;;;;;;;;;;10.10;96.00;;;9.59;78.63;95812.19;5053714;28;19928;-48
2022/03/30 04:42:07;;;;;;;;;;;10.00;96.50;;;9.58;79.63;95812.28;5050595;28;19916;-47
2022/03/30 04:44:32;;;;;;;;;;;10.00;96.60;;;9.52;81.49;95811.69;5050850;28;19929;-48
2022/03/30 04:46:58;;;;;;;;;;;10.00;97.20;;;9.48;83.21;95811.97;5044862;28;20030;-48
2022/03/30 04:49:24;;;;;;;;;;;9.90;98.00;;;9.43;84.44;95814.84;5031079;28;19922;-49
2022/03/30 04:51:50;;;;;;;;;;;9.90;98.60;;;9.35;85.85;95811.84;5048078;28;19942;-48
2022/03/30 04:54:17;;;;;;;;;;;9.80;99.20;;;9.27;89.04;95814.88;5045671;28;20007;-49
2022/03/30 04:56:44;;;;;;;;;;;9.70;99.90;;;9.15;92.34;95819.06;5044226;28;20304;-48
2022/03/30 04:59:10;;;;;;;;;;;9.70;99.90;;;9.01;93.43;95813.75;5046661;28;19921;-47
2022/03/30 05:01:37;;;;;;;;;;;9.60;99.90;;;8.96;95.88;95810.53;5049764;28;20532;-49
2022/03/30 05:04:06;;;;;;;;;;;9.50;99.90;;;8.89;98.79;95817.06;5049006;28;19924;-46
2022/03/30 05:06:31;;;;;;;;;;;9.40;99.90;;;8.82;100.00;95816.53;5047077;28;20374;-48
2022/03/30 05:08:57;;;;;;;;;;;9.30;99.90;;;8.75;100.00;95815.19;5024418;28;20752;-49
2022/03/30 05:11:22;;;;;;;;;;;9.20;99.90;;;8.68;100.00;95819.91;5036949;28;20134;-50
2022/03/30 05:13:48;;;;;;;;;;;9.20;99.90;;;8.60;100.00;95817.72;5042783;28;19971;-47
2022/03/30 05:16:14;;;;;;;;;;;9.10;99.90;;;8.53;100.00;95818.97;5042302;28;20358;-47
2022/03/30 05:18:39;;;;;;;;;;;9.00;99.90;;;8.47;100.00;95821.06;5041305;28;20049;-44
2022/03/30 05:21:05;;;;;;;;;;;9.00;99.90;;;8.42;100.00;95810.84;5045432;28;19963;-50
2022/03/30 05:23:31;;;;;;;;;;;8.90;99.90;;;8.35;100.00;95812.06;5050065;28;20015;-48
2022/03/30 05:25:56;;;;;;;;;;;8.90;99.90;;;8.30;100.00;95808.81;5049636;28;20427;-50
2022/03/30 05:28:22;;;;;;;;;;;8.80;99.90;;;8.28;100.00;95813.31;5048253;28;19935;-45
2022/03/30 05:30:48;;;;;;;;;;;8.80;99.90;;;8.23;100.00;95809.13;5053254;28;20321;-47
2022/03/30 05:33:14;;;;;;;;;;;8.70;99.90;;;8.20;100.00;95817.19;5052782;28;19986;-48
2022/03/30 05:35:40;;;;;;;;;;;8.70;99.90;;;8.15;100.00;95813.13;5048070;28;19925;-47
2022/03/30 05:38:05;;;;;;;;;;;8.70;99.90;;;8.10;100.00;95809.88;5051647;28;19927;-48
2022/03/30 05:40:31;;;;;;;;;;;8.60;99.90;;;8.06;100.00;95814.44;5051563;28;19971;-48
2022/03/30 05:42:57;;;;;;;;;;;8.60;99.90;;;8.03;100.00;95819.84;5048326;28;19936;-44
2022/03/30 05:45:23;;;;;;;;;;;8.60;99.90;;;8.02;100.00;95815.50;5052205;28;19924;-46
2022/03/30 05:47:48;;;;;;;;;;;8.60;99.90;;;8.04;100.00;95818.94;5048187;28;19931;-46
2022/03/30 05:50:14;;;;;;;;;;;8.50;99.90;;;8.10;100.00;95810.72;5051729;28;20618;-51
2022/03/30 05:52:40;;;;;;;;;;;8.60;99.90;;;8.09;100.00;95811.63;5051789;28;19924;-46
2022/03/30 05:55:06;;;;;;;;;;;8.60;99.90;;;8.07;100.00;95813.50;5054507;28;19964;-47
2022/03/30 05:57:32;;;;;;;;;;;8.60;99.90;;;8.03;100.00;95815.44;5056453;28;19916;-47
2022/03/30 05:59:58;;;;;;;;;;;8.60;99.90;;;8.01;100.00;95813.84;5037203;28;19943;-47
2022/03/30 06:02:23;;;;;;;;;;;8.60;99.90;;;8.01;100.00;95808.59;5050512;28;19924;-47
2022/03/30 06:04:53;;;;;;;;;;;8.50;99.90;;;7.99;100.00;95806.03;5051761;28;20378;-47
2022/03/30 06:07:20;;;;;;;;;;;8.50;99.90;;;7.95;100.00;95798.38;5053737;28;19944;-49
2022/03/30 06:09:46;;;;;;;;;;;8.50;99.90;;;7.99;100.00;95803.41;5055579;28;19959;-50
2022/03/30 06:12:11;;;;;;;;;;;8.50;99.90;;;8.01;100.00;95808.59;5056488;28;19956;-49
2022/03/30 06:14:37;;;;;;;;;;;8.50;99.90;;;7.99;100.00;95808.66;5056124;28;19924;-49
2022/03/30 06:17:04;;;;;;;;;;;8.50;99.90;;;8.01;100.00;95803.34;5054693;28;19959;-47
2022/03/30 06:19:31;;;;;;;;;;;8.60;99.90;;;8.04;100.00;95808.44;5037905;28;19916;-47
2022/03/30 06:21:56;;;;;;;;;;;8.50;99.90;;;7.91;100.00;95776.69;5038680;28;19936;-47
2022/03/30 06:24:22;;;;;;;;;;;8.60;99.90;;;8.07;100.00;95800.38;5058243;28;19924;-49
2022/03/30 06:26:47;;;;;;;;;;;8.60;99.90;;;8.10;100.00;95808.09;5054189;28;20050;-47
2022/03/30 06:29:13;;;;;;;;;;;8.60;99.90;;;8.13;100.00;95796.56;5059678;28;20323;-48
2022/03/30 06:31:39;;;;;;;;;;;8.60;99.90;;;8.17;100.00;95798.13;5056556;28;20412;-45
2022/03/30 06:34:04;;;;;;;;;;;8.70;99.90;;;8.19;100.00;95793.63;5052235;28;19924;-46
2022/03/30 06:36:31;;;;;;;;;;;8.70;99.90;;;8.22;100.00;95791.69;5055547;28;20761;-47
2022/03/30 06:38:58;;;;;;;;;;;8.70;99.90;;;8.27;100.00;95794.06;5055543;28;19966;-47
2022/03/30 06:41:24;;;;;;;;;;;8.70;99.90;;;8.28;100.00;95787.91;5059371;28;20673;-49
2022/03/30 06:43:50;;;;;;;;;;;8.80;99.90;;;8.27;100.00;95785.34;5062707;28;20011;-50
2022/03/30 06:46:17;;;;;;;;;;;8.80;99.90;;;8.34;100.00;95789.34;5055419;28;20023;-49
2022/03/30 06:48:44;;;;;;;;;;;8.80;99.90;;;8.36;100.00;95787.47;5061703;28;19928;-47
2022/03/30 06:51:09;;;;;;;;;;;8.80;99.90;;;8.39;100.00;95787.31;5056439;28;19916;-44
2022/03/30 06:53:35;;;;;;;;;;;8.90;99.90;;;8.40;100.00;95779.34;5058827;28;19924;-48
2022/03/30 06:56:01;;;;;;;;;;;8.90;99.90;;;8.47;100.00;95777.28;5034951;28;19917;-48
2022/03/30 06:58:27;;;;;;;;;;;9.00;99.90;;;8.50;100.00;95779.72;5057014;28;20229;-47
2022/03/30 07:00:53;;;;;;;;;;;9.00;99.90;;;8.54;100.00;95776.03;5053083;28;19989;-48
2022/03/30 07:03:19;;;;;;;;;;;9.00;99.90;;;8.56;100.00;95768.91;5036014;28;20382;-48
2022/03/30 07:05:44;;;;;;;;;;;9.10;99.90;;;8.58;100.00;95766.19;5057025;28;20389;-47
2022/03/30 07:10:54;;;;;;;;;;;9.10;99.90;;;8.65;100.00;95775.44;5056366;28;19931;-49
2022/03/30 07:13:22;;;;;;;;;;;9.10;99.90;;;8.70;100.00;95769.91;5056302;28;19924;-48
2022/03/30 07:15:48;;;;;;;;;;;9.20;99.90;;;8.75;100.00;95766.06;5059583;28;20385;-47
2022/03/30 07:18:13;;;;;;;;;;;9.30;99.90;;;8.85;100.00;95763.81;5055746;28;19920;-46
2022/03/30 07:20:39;;;;;;;;;;;9.30;99.90;;;8.94;100.00;95767.69;5060172;28;20655;-48
2022/03/30 07:23:05;;;;;;;;;;;9.40;99.90;;;9.02;100.00;95767.25;5061460;28;19917;-49
2022/03/30 07:25:31;;;;;;;;;;;9.50;99.90;;;9.10;100.00;95770.31;5040545;28;19916;-46
2022/03/30 07:27:59;;;;;;;;;;;9.60;99.90;;;9.16;100.00;95756.78;5057737;28;19920;-50
2022/03/30 07:30:25;;;;;;;;;;;9.70;99.90;;;9.28;100.00;95761.34;5056064;28;19924;-47
2022/03/30 07:32:52;;;;;;;;;;;9.80;99.90;;;9.35;100.00;95759.22;5062287;28;19931;-46
2022/03/30 07:35:21;;;;;;;;;;;9.80;99.90;;;9.45;100.00;95755.09;5059298;28;19925;-45
2022/03/30 07:37:47;;;;;;;;;;;9.90;99.90;;;9.54;100.00;95765.06;5061011;28;20321;-46
2022/03/30 07:40:16;;;;;;;;;;;10.00;99.90;;;9.58;100.00;95764.91;5043781;28;19924;-51
2022/03/30 07:42:42;;;;;;;;;;;10.10;99.90;;;9.59;100.00;95754.28;5057715;28;20464;-47
2022/03/30 07:45:09;;;;;;;;;;;10.10;99.90;;;9.65;100.00;95759.16;5055284;28;19924;-49
2022/03/30 07:47:34;;;;;;;;;;;10.10;99.90;;;9.66;100.00;95758.25;5056362;28;19924;-47
2022/03/30 07:50:00;;;;;;;;;;;10.10;99.90;;;9.71;100.00;95761.47;5059545;28;19973;-47
2022/03/30 07:52:26;;;;;;;;;;;10.20;99.90;;;9.79;100.00;95747.81;5059831;28;19993;-46
2022/03/30 07:54:54;;;;;;;;;;;10.20;99.90;;;9.78;100.00;95735.63;5056024;28;19916;-48
2022/03/30 07:57:26;;;;;;;;;;;10.30;99.90;;;9.81;100.00;95735.41;5059455;28;20326;-47
2022/03/30 08:00:02;;;;;;;;;;;10.30;99.90;;;9.95;100.00;95747.75;5061999;28;19927;-47
2022/03/30 08:02:27;;;;;;;;;;;10.40;99.90;;;10.03;100.00;95747.28;5057354;28;19920;-46
2022/03/30 08:04:55;;;;;;;;;;;10.50;99.90;;;10.19;100.00;95748.03;5056439;28;20362;-48
2022/03/30 08:07:22;;;;;;;;;;;10.60;99.90;;;10.33;100.00;95749.84;5053330;28;19951;-47
2022/03/30 08:09:48;;;;;;;;;;;10.80;99.90;;;10.49;100.00;95755.00;5059913;28;19944;-47
2022/03/30 08:12:15;;;;;;;;;;;10.90;99.90;;;10.59;100.00;95752.66;5057948;28;20287;-47
2022/03/30 08:14:42;;;;;;;;;;;11.00;99.90;;;10.63;100.00;95751.50;5062082;28;19917;-49
2022/03/30 08:17:08;;;;;;;;;;;11.10;99.90;;;10.63;100.00;95752.34;5057395;28;19924;-46
2022/03/30 08:19:34;;;;;;;;;;;11.00;99.90;;;10.66;100.00;95752.16;5062407;28;19936;-45
2022/03/30 08:24:46;;;;;;;;;;;11.10;99.90;;;10.66;100.00;95754.78;5057844;28;19923;-48
2022/03/30 08:27:20;;;;;;;;;;;11.10;99.90;;;10.64;100.00;95753.19;5055107;28;20326;-47
2022/03/30 08:29:46;;;;;;;;;;;11.00;99.90;;;10.61;100.00;95756.03;5058128;28;20141;-46
2022/03/30 08:32:12;;;;;;;;;;;11.00;99.90;;;10.50;100.00;95749.63;5052363;28;19989;-49
2022/03/30 08:34:39;;;;;;;;;;;10.90;99.90;;;10.40;100.00;95747.69;5053977;28;20419;-47
2022/03/30 08:37:05;;;;;;;;;;;10.90;99.90;;;10.35;100.00;95749.75;5055040;28;20032;-48
2022/03/30 08:39:31;;;;;;;;;;;10.80;99.90;;;10.25;100.00;95760.84;5058447;28;20485;-48
2022/03/30 08:41:57;;;;;;;;;;;10.70;99.90;;;10.14;100.00;95755.38;5058021;28;19925;-45
2022/03/30 08:44:23;;;;;;;;;;;10.60;99.90;;;9.98;100.00;95755.47;5059550;28;19916;-47
2022/03/30 08:46:48;;;;;;;;;;;10.50;99.90;;;9.86;100.00;95748.31;5057443;28;19969;-47
2022/03/30 08:49:15;;;;;;;;;;;10.40;99.90;;;9.88;100.00;95751.69;5061304;28;19924;-48
2022/03/30 08:54:10;;;;;;;;;;;10.30;99.90;;;9.83;100.00;95761.66;5072292;28;19947;-40
2022/03/30 08:56:37;;;;;;;;;;;10.30;99.90;;;9.73;100.00;95743.78;5048216;28;19927;-43
2022/03/30 08:59:04;;;;;;;;;;;10.20;99.90;;;9.85;100.00;95759.78;5074812;28;20014;-42
2022/03/30 09:01:35;;;;;;;;;;;10.30;99.90;;;9.86;100.00;95754.41;5065418;28;19959;-45
2022/03/30 09:04:04;;;;;;;;;;;10.30;99.90;;;9.88;100.00;95756.97;5053604;28;20361;-40
2022/03/30 09:06:36;;;;;;;;;;;10.30;99.90;;;9.91;100.00;95755.00;5054156;28;20019;-41
2022/03/30 09:09:03;;;;;;;;;;;10.30;99.90;;;9.96;100.00;95748.59;5054314;28;20011;-41
2022/03/30 09:11:31;;;;;;;;;;;10.30;99.90;;;9.99;100.00;95754.50;5049600;28;19955;-44
2022/03/30 09:14:04;;;;;;;;;;;10.40;99.90;;;10.03;100.00;95745.50;5029532;28;19924;-41
2022/03/30 09:16:50;;;;;;;;;;;10.40;99.90;;;10.07;100.00;95743.53;5051815;28;20007;-40
2022/03/30 09:19:17;;;;;;;;;;;10.50;99.90;;;10.08;100.00;95746.03;5057408;28;19917;-40
2022/03/30 09:21:46;;;;;;;;;;;10.50;99.90;;;10.11;100.00;95751.13;5054301;28;20010;-41
2022/03/30 09:24:13;;;;;;;;;;;10.50;99.90;;;10.15;100.00;95750.97;5058560;28;20002;-41
2022/03/30 09:26:40;;;;;;;;;;;10.60;99.90;;;10.14;100.00;95744.84;5052063;28;20328;-40
2022/03/30 09:29:07;;;;;;;;;;;10.60;99.90;;;10.11;100.00;95739.75;5053884;28;19916;-39
2022/03/30 09:31:34;;;;;;;;;;;10.50;99.90;;;10.14;100.00;95747.47;5052170;28;20009;-43
2022/03/30 09:34:04;;;;;;;;;;;10.50;99.90;;;10.14;100.00;95739.59;5048893;28;19925;-43
2022/03/30 09:36:34;;;;;;;;;;;10.50;99.90;;;10.12;100.00;95741.44;5050881;28;19946;-43
2022/03/30 09:39:01;;;;;;;;;;;10.60;99.90;;;10.09;100.00;95737.22;5049924;28;19924;-40
2022/03/30 09:41:26;;;;;;;;;;;10.50;99.90;;;10.05;100.00;95734.84;5039098;28;19923;-41
2022/03/30 09:44:04;;;;;;;;;;;10.50;99.90;;;10.01;100.00;95744.72;5033414;28;19921;-42
2022/03/30 09:46:31;;;;;;;;;;;10.50;99.90;;;10.01;100.00;95738.63;5056891;28;19924;-39
2022/03/30 09:48:57;;;;;;;;;;;10.40;99.90;;;10.01;100.00;95736.84;5057068;28;19925;-45
2022/03/30 09:51:25;;;;;;;;;;;10.40;99.90;;;10.02;100.00;95735.91;5058247;28;19931;-42
2022/03/30 09:53:50;;;;;;;;;;;10.40;99.90;;;10.05;100.00;95734.84;5050042;28;19970;-44
2022/03/30 09:56:21;;;;;;;;;;;10.50;99.90;;;10.02;100.00;95727.16;5048783;28;20324;-45
2022/03/30 09:58:47;;;;;;;;;;;10.50;99.90;;;10.02;100.00;95724.53;5053004;28;20065;-46
2022/03/30 10:01:22;;;;;;;;;;;10.50;99.90;;;10.00;100.00;95723.78;5053161;28;20078;-41
2022/03/30 10:03:49;;;;;;;;;;;10.50;99.90;;;10.06;100.00;95721.59;5050730;28;20603;-40
2022/03/30 10:06:18;;;;;;;;;;;10.50;99.90;;;10.09;100.00;95724.06;5041275;28;20390;-39
2022/03/30 10:08:45;;;;;;;;;;;10.50;99.90;;;10.15;100.00;95717.56;5033633;28;20019;-39
2022/03/30 10:11:12;;;;;;;;;;;10.60;99.90;;;10.27;100.00;95713.31;5038433;28;19916;-41
2022/03/30 10:13:39;;;;;;;;;;;10.60;99.90;;;10.29;100.00;95714.91;5052720;28;19951;-47
2022/03/30 10:16:08;;;;;;;;;;;10.80;99.90;;;10.37;100.00;95716.25;5053068;28;19927;-41
2022/03/30 10:18:35;;;;;;;;;;;10.80;99.90;;;10.42;100.00;95712.38;5057719;28;19972;-40
2022/03/30 10:21:19;;;;;;;;;;;10.90;99.90;;;10.49;100.00;95718.94;5057537;28;19924;-39
2022/03/30 10:23:50;;;;;;;;;;;11.00;99.90;;;10.58;100.00;95711.41;5053484;28;19974;-44
2022/03/30 10:26:34;;;;;;;;;;;11.00;99.90;;;10.62;100.00;95711.13;5035746;28;19920;-44
2022/03/30 10:29:09;;;;;;;;;;;11.00;99.90;;;10.66;100.00;95699.44;5051114;28;19924;-37
2022/03/30 10:31:34;;;;;;;;;;;11.10;99.90;;;10.70;100.00;95702.72;5038646;28;19917;-39
2022/03/30 10:34:26;;;;;;;;;;;11.20;99.90;;;10.78;100.00;95699.56;5056417;28;19920;-38
2022/03/30 10:37:25;;;;;;;;;;;11.20;99.90;;;11.00;100.00;95694.59;5053727;28;20393;-41
2022/03/30 10:40:06;;;;;;;;;;;11.30;99.90;;;11.26;100.00;95697.28;5057120;28;19921;-47
2022/03/30 10:42:57;;;;;;;;;;;11.70;99.90;;;11.75;100.00;95685.19;5057293;28;20632;-40
2022/03/30 10:45:28;;;;;;;;;;;12.00;99.90;;;11.76;100.00;95692.19;5051608;28;19959;-44
2022/03/30 10:48:12;;;;;;;;;;;12.30;99.90;;;11.93;100.00;95680.47;5057229;28;19927;-41
2022/03/30 10:50:51;;;;;;;;;;;12.30;99.90;;;11.88;100.00;95686.06;5053932;28;19967;-45
2022/03/30 10:53:31;;;;;;;;;;;12.30;99.90;;;11.64;100.00;95675.38;5056664;28;19920;-40
2022/03/30 10:56:09;;;;;;;;;;;12.10;99.90;;;11.37;100.00;95686.03;5052750;28;20316;-43
2022/03/30 10:58:35;;;;;;;;;;;11.80;99.90;;;11.19;100.00;95672.28;5054430;28;19990;-41
2022/03/30 11:01:13;;;;;;;;;;;11.60;99.90;;;10.99;100.00;95661.25;5054563;28;20390;-39
2022/03/30 11:03:55;;;;;;;;;;;11.50;99.90;;;10.92;100.00;95667.03;5035991;28;19947;-46
2022/03/30 11:06:21;;;;;;;;;;;11.30;99.90;;;10.82;100.00;95665.00;5055462;28;19917;-42
2022/03/30 11:08:50;;;;;;;;;;;11.20;99.90;;;10.65;100.00;95665.25;5056589;28;19916;-41
2022/03/30 11:11:30;;;;;;;;;;;11.10;99.90;;;10.59;100.00;95660.41;5058223;28;20142;-41
2022/03/30 11:14:22;;;;;;;;;;;11.00;99.90;;;10.53;100.00;95655.50;5055160;28;19921;-42
2022/03/30 11:16:49;;;;;;;;;;;11.00;99.90;;;10.48;100.00;95659.28;5053821;28;20369;-44
2022/03/30 11:19:14;;;;;;;;;;;10.90;99.90;;;10.45;100.00;95658.63;5053622;28;19962;-42
2022/03/30 11:21:52;;;;;;;;;;;10.90;99.90;;;10.37;100.00;95656.47;5051767;28;19920;-40
2022/03/30 11:24:19;;;;;;;;;;;10.80;99.90;;;10.38;100.00;95652.91;5053286;28;19970;-39
2022/03/30 11:26:50;;;;;;;;;;;10.80;99.90;;;10.46;100.00;95650.66;5055947;28;20201;-39
2022/03/30 11:29:40;;;;;;;;;;;10.90;99.90;;;10.47;100.00;95654.13;5052546;28;20424;-43
2022/03/30 11:32:24;;;;;;;;;;;10.90;99.90;;;10.62;100.00;95649.63;5055831;28;19924;-45
2022/03/30 11:34:53;;;;;;;;;;;11.00;99.90;;;10.66;100.00;95656.41;5058758;28;20050;-41
2022/03/30 11:37:31;;;;;;;;;;;11.10;99.90;;;10.75;100.00;95653.19;5055074;28;19955;-45